Time;durP1;ratioP1;P1;durP2;ratioP2;P2;SDS_P1;SDS_P2;PMS_P1;PMS_P2;Temp;Humidity;BMP_temperature;BMP_pressure;BME280_temperature;BME280_humidity;BME280_pressure;Samples;Min_cycle;Max_cycle;Signal;HPM_P1;HPM_P2
2023/11/30 00:02:16;;;;;;;;;;;;;;;;;;5089291;28;19963;-85
2023/11/30 00:04:42;;;;;;;;;;;;;;;;;;5065591;28;19975;-84
2023/11/30 00:07:11;;;;;;;;;;;;;;;;;;5070217;28;19954;-83
2023/11/30 00:09:37;;;;;;;;;;;;;;;;;;5087621;28;20227;-84
2023/11/30 00:12:03;;;;;;;;;;;;;;;;;;5089454;28;19951;-84
2023/11/30 00:14:29;;;;;;;;;;;;;;;;;;5089844;28;19926;-83
2023/11/30 00:16:55;;;;;;;;;;;;;;;;;;5073348;28;20040;-85
2023/11/30 00:19:21;;;;;;;;;;;;;;;;;;5089750;28;19959;-84
2023/11/30 00:21:47;;;;;;;;;;;;;;;;;;5088788;28;19951;-83
2023/11/30 00:24:12;;;;;;;;;;;;;;;;;;5089938;28;19947;-84
2023/11/30 00:26:39;;;;;;;;;;;;;;;;;;5072167;28;20379;-84
2023/11/30 00:29:05;;;;;;;;;;;;;;;;;;5081747;28;20340;-83
2023/11/30 00:31:31;;;;;;;;;;;;;;;;;;5090332;28;19915;-85
2023/11/30 00:33:57;;;;;;;;;;;;;;;;;;5092006;28;19947;-84
2023/11/30 00:36:23;;;;;;;;;;;;;;;;;;5089621;28;19951;-83
2023/11/30 00:38:49;;;;;;;;;;;;;;;;;;5084839;28;19963;-84
2023/11/30 00:41:15;;;;;;;;;;;;;;;;;;5090227;28;19912;-87
2023/11/30 00:43:40;;;;;;;;;;;;;;;;;;5076021;28;19951;-87
2023/11/30 00:46:08;;;;;;;;;;;;;;;;;;5089739;28;20399;-87
2023/11/30 00:48:34;;;;;;;;;;;;;;;;;;5090307;28;19923;-87
2023/11/30 00:51:00;;;;;;;;;;;;;;;;;;5089532;28;19947;-87
2023/11/30 00:53:26;;;;;;;;;;;;;;;;;;5087310;28;19952;-87
2023/11/30 00:55:52;;;;;;;;;;;;;;;;;;5087849;28;19951;-88
2023/11/30 00:58:18;;;;;;;;;;;;;;;;;;5088278;28;19959;-87
2023/11/30 01:00:44;;;;;;;;;;;;;;;;;;5089270;28;20300;-87
2023/11/30 01:03:10;;;;;;;;;;;;;;;;;;5089238;28;19912;-87
2023/11/30 01:05:36;;;;;;;;;;;;;;;;;;5079398;28;19944;-87
2023/11/30 01:08:02;;;;;;;;;;;;;;;;;;5085833;28;20459;-87
2023/11/30 01:10:28;;;;;;;;;;;;;;;;;;5074180;28;20008;-87
2023/11/30 01:12:54;;;;;;;;;;;;;;;;;;5088758;28;19981;-87
2023/11/30 01:15:20;;;;;;;;;;;;;;;;;;5089681;28;19954;-87
2023/11/30 01:17:45;;;;;;;;;;;;;;;;;;5080951;28;19979;-88
2023/11/30 01:20:11;;;;;;;;;;;;;;;;;;5089613;28;19939;-88
2023/11/30 01:22:37;;;;;;;;;;;;;;;;;;5088084;28;19955;-88
2023/11/30 01:25:03;;;;;;;;;;;;;;;;;;5089948;28;19958;-88
2023/11/30 01:27:29;;;;;;;;;;;;;;;;;;5073448;28;19998;-88
2023/11/30 01:29:55;;;;;;;;;;;;;;;;;;5089042;28;20028;-87
2023/11/30 01:32:22;;;;;;;;;;;;;;;;;;5064713;28;19946;-86
2023/11/30 01:34:48;;;;;;;;;;;;;;;;;;5092773;28;20416;-87
2023/11/30 01:37:14;;;;;;;;;;;;;;;;;;5076257;28;19912;-87
2023/11/30 01:39:40;;;;;;;;;;;;;;;;;;5093248;28;20003;-87
2023/11/30 01:42:06;;;;;;;;;;;;;;;;;;5083980;28;19969;-87
2023/11/30 01:44:32;;;;;;;;;;;;;;;;;;5069187;28;19948;-87
2023/11/30 01:46:58;;;;;;;;;;;;;;;;;;5090921;28;20323;-88
2023/11/30 01:49:24;;;;;;;;;;;;;;;;;;5094373;28;20391;-92
2023/11/30 01:51:50;;;;;;;;;;;;;;;;;;5100672;28;19907;-94
2023/11/30 01:54:16;;;;;;;;;;;;;;;;;;5098445;28;19916;-92
2023/11/30 01:56:41;;;;;;;;;;;;;;;;;;5092412;28;19919;-91
2023/11/30 01:59:07;;;;;;;;;;;;;;;;;;5090609;28;19916;-91
2023/11/30 02:01:33;;;;;;;;;;;;;;;;;;5096162;28;20098;-93
2023/11/30 02:03:59;;;;;;;;;;;;;;;;;;5093867;28;19961;-94
2023/11/30 02:06:25;;;;;;;;;;;;;;;;;;5092894;28;19906;-92
2023/11/30 02:08:51;;;;;;;;;;;;;;;;;;5096940;28;19915;-93
2023/11/30 02:11:17;;;;;;;;;;;;;;;;;;5089167;28;20129;-93
2023/11/30 02:13:43;;;;;;;;;;;;;;;;;;5093640;28;20060;-91
2023/11/30 02:16:09;;;;;;;;;;;;;;;;;;5094271;28;20001;-92
2023/11/30 02:18:35;;;;;;;;;;;;;;;;;;5093900;28;19962;-93
2023/11/30 02:21:01;;;;;;;;;;;;;;;;;;5077053;28;19947;-92
2023/11/30 02:23:27;;;;;;;;;;;;;;;;;;5092195;28;19912;-92
2023/11/30 02:25:52;;;;;;;;;;;;;;;;;;5089023;28;20289;-90
2023/11/30 02:28:18;;;;;;;;;;;;;;;;;;5089115;28;20429;-89
2023/11/30 02:30:46;;;;;;;;;;;;;;;;;;5093628;28;20346;-93
2023/11/30 02:33:12;;;;;;;;;;;;;;;;;;5093415;28;20000;-91
2023/11/30 02:35:38;;;;;;;;;;;;;;;;;;5093034;28;20374;-92
2023/11/30 02:38:04;;;;;;;;;;;;;;;;;;5090268;28;19966;-92
2023/11/30 02:40:30;;;;;;;;;;;;;;;;;;5074036;28;19909;-92
2023/11/30 02:42:56;;;;;;;;;;;;;;;;;;5073322;28;19908;-93
2023/11/30 02:45:21;;;;;;;;;;;;;;;;;;5093060;28;19908;-92
2023/11/30 02:47:47;;;;;;;;;;;;;;;;;;5094877;28;19923;-92
2023/11/30 02:50:13;;;;;;;;;;;;;;;;;;5095872;28;19965;-90
2023/11/30 02:52:39;;;;;;;;;;;;;;;;;;5093002;28;20062;-90
2023/11/30 02:55:05;;;;;;;;;;;;;;;;;;5092666;28;20255;-90
2023/11/30 02:57:31;;;;;;;;;;;;;;;;;;5092999;28;20382;-92
2023/11/30 02:59:57;;;;;;;;;;;;;;;;;;5093117;28;20519;-84
2023/11/30 03:02:23;;;;;;;;;;;;;;;;;;5090329;28;20079;-86
2023/11/30 03:04:49;;;;;;;;;;;;;;;;;;5085491;28;20042;-87
2023/11/30 03:07:15;;;;;;;;;;;;;;;;;;5086384;28;19939;-85
2023/11/30 03:09:41;;;;;;;;;;;;;;;;;;5089787;28;19959;-85
2023/11/30 03:12:07;;;;;;;;;;;;;;;;;;5090100;28;20282;-85
2023/11/30 03:14:33;;;;;;;;;;;;;;;;;;5090162;28;20426;-87
2023/11/30 03:16:59;;;;;;;;;;;;;;;;;;5086041;28;19948;-85
2023/11/30 03:19:24;;;;;;;;;;;;;;;;;;5087760;28;19970;-85
2023/11/30 03:21:50;;;;;;;;;;;;;;;;;;5083872;28;20009;-84
2023/11/30 03:24:16;;;;;;;;;;;;;;;;;;5091477;28;19939;-86
2023/11/30 03:26:42;;;;;;;;;;;;;;;;;;5089089;28;20376;-84
2023/11/30 03:29:08;;;;;;;;;;;;;;;;;;5084148;28;20012;-86
2023/11/30 03:31:35;;;;;;;;;;;;;;;;;;5079446;28;20057;-85
2023/11/30 03:34:00;;;;;;;;;;;;;;;;;;5086801;28;19915;-86
2023/11/30 03:36:26;;;;;;;;;;;;;;;;;;5084025;28;19908;-85
2023/11/30 03:38:55;;;;;;;;;;;;;;;;;;5090597;28;19992;-85
2023/11/30 03:41:21;;;;;;;;;;;;;;;;;;5086607;28;19908;-85
2023/11/30 03:43:49;;;;;;;;;;;;;;;;;;5087096;28;20224;-86
2023/11/30 03:46:15;;;;;;;;;;;;;;;;;;5082488;28;19991;-86
2023/11/30 03:48:41;;;;;;;;;;;;;;;;;;5089151;28;19987;-85
2023/11/30 03:51:07;;;;;;;;;;;;;;;;;;5069399;28;20381;-85
2023/11/30 03:53:32;;;;;;;;;;;;;;;;;;5085746;28;20011;-86
2023/11/30 03:56:00;;;;;;;;;;;;;;;;;;5089078;28;19980;-85
2023/11/30 03:58:25;;;;;;;;;;;;;;;;;;5073810;28;20087;-86
2023/11/30 04:00:51;;;;;;;;;;;;;;;;;;5102598;27;19915;-84
2023/11/30 04:03:17;;;;;;;;;;;;;;;;;;5089525;28;20355;-84
2023/11/30 04:05:43;;;;;;;;;;;;;;;;;;5070942;28;20380;-85
2023/11/30 04:08:09;;;;;;;;;;;;;;;;;;5089141;28;19912;-86
2023/11/30 04:10:35;;;;;;;;;;;;;;;;;;5089499;28;19962;-87
2023/11/30 04:13:01;;;;;;;;;;;;;;;;;;5092170;28;19919;-87
2023/11/30 04:15:27;;;;;;;;;;;;;;;;;;5088718;28;20344;-87
2023/11/30 04:17:53;;;;;;;;;;;;;;;;;;5090283;28;20378;-87
2023/11/30 04:20:19;;;;;;;;;;;;;;;;;;5090173;28;19939;-88
2023/11/30 04:22:45;;;;;;;;;;;;;;;;;;5089416;28;19944;-87
2023/11/30 04:25:11;;;;;;;;;;;;;;;;;;5072640;28;19912;-87
2023/11/30 04:27:37;;;;;;;;;;;;;;;;;;5089610;28;21450;-87
2023/11/30 04:30:03;;;;;;;;;;;;;;;;;;5086052;28;19975;-87
2023/11/30 04:32:29;;;;;;;;;;;;;;;;;;5085817;28;19915;-87
2023/11/30 04:34:55;;;;;;;;;;;;;;;;;;5087548;28;19943;-88
2023/11/30 04:37:21;;;;;;;;;;;;;;;;;;5088247;28;20378;-88
2023/11/30 04:39:47;;;;;;;;;;;;;;;;;;5082719;28;19966;-87
2023/11/30 04:42:13;;;;;;;;;;;;;;;;;;5074037;28;19915;-87
2023/11/30 04:44:39;;;;;;;;;;;;;;;;;;5089513;28;20014;-87
2023/11/30 04:47:05;;;;;;;;;;;;;;;;;;5088097;28;20035;-87
2023/11/30 04:49:31;;;;;;;;;;;;;;;;;;5089351;28;19911;-88
2023/11/30 04:51:57;;;;;;;;;;;;;;;;;;5088290;28;19992;-87
2023/11/30 04:54:23;;;;;;;;;;;;;;;;;;5086184;28;20044;-88
2023/11/30 04:56:49;;;;;;;;;;;;;;;;;;5082586;28;19977;-87
2023/11/30 04:59:15;;;;;;;;;;;;;;;;;;5086229;28;19959;-87
2023/11/30 05:01:41;;;;;;;;;;;;;;;;;;5087631;28;20317;-88
2023/11/30 05:04:07;;;;;;;;;;;;;;;;;;5090014;28;19915;-88
2023/11/30 05:06:32;;;;;;;;;;;;;;;;;;5084557;28;20414;-88
2023/11/30 05:08:58;;;;;;;;;;;;;;;;;;5083781;28;20015;-87
2023/11/30 05:11:24;;;;;;;;;;;;;;;;;;5092517;28;20375;-87
2023/11/30 05:13:50;;;;;;;;;;;;;;;;;;5093418;28;20367;-88
2023/11/30 05:16:16;;;;;;;;;;;;;;;;;;5084063;28;19952;-87
2023/11/30 05:18:42;;;;;;;;;;;;;;;;;;5084701;28;19958;-87
2023/11/30 05:21:08;;;;;;;;;;;;;;;;;;5089847;28;19954;-93
2023/11/30 05:23:34;;;;;;;;;;;;;;;;;;5094578;28;20124;-91
2023/11/30 05:26:01;;;;;;;;;;;;;;;;;;5092791;28;19912;-89
2023/11/30 05:28:27;;;;;;;;;;;;;;;;;;5091258;28;19943;-91
2023/11/30 05:30:53;;;;;;;;;;;;;;;;;;5073016;28;19907;-92
2023/11/30 05:33:19;;;;;;;;;;;;;;;;;;5086670;28;19946;-93
2023/11/30 05:35:44;;;;;;;;;;;;;;;;;;5074130;28;19955;-93
2023/11/30 05:38:10;;;;;;;;;;;;;;;;;;5075424;28;19974;-91
2023/11/30 05:40:36;;;;;;;;;;;;;;;;;;5090644;28;20036;-92
2023/11/30 05:43:02;;;;;;;;;;;;;;;;;;5063100;28;20373;-92
2023/11/30 05:45:28;;;;;;;;;;;;;;;;;;5084211;28;19950;-91
2023/11/30 05:47:54;;;;;;;;;;;;;;;;;;5060945;28;20494;-92
2023/11/30 05:50:20;;;;;;;;;;;;;;;;;;5078866;28;19958;-90
2023/11/30 05:52:46;;;;;;;;;;;;;;;;;;5089588;28;19952;-94
2023/11/30 05:55:14;;;;;;;;;;;;;;;;;;5083893;28;20354;-92
2023/11/30 05:57:40;;;;;;;;;;;;;;;;;;5069018;28;19916;-90
2023/11/30 06:00:06;;;;;;;;;;;;;;;;;;5088697;28;20008;-91
2023/11/30 06:02:32;;;;;;;;;;;;;;;;;;5084562;28;19920;-94
2023/11/30 06:04:58;;;;;;;;;;;;;;;;;;5089633;28;19923;-91
2023/11/30 06:07:24;;;;;;;;;;;;;;;;;;5089199;28;19896;-93
2023/11/30 06:09:50;;;;;;;;;;;;;;;;;;5088712;28;19944;-94
2023/11/30 06:12:16;;;;;;;;;;;;;;;;;;5083718;28;19955;-93
2023/11/30 06:14:43;;;;;;;;;;;;;;;;;;5079532;28;19947;-91
2023/11/30 06:17:08;;;;;;;;;;;;;;;;;;5091634;28;19954;-95
2023/11/30 06:19:34;;;;;;;;;;;;;;;;;;5091680;28;19974;-89
2023/11/30 06:22:00;;;;;;;;;;;;;;;;;;5063698;28;19919;-92
2023/11/30 06:24:26;;;;;;;;;;;;;;;;;;5083525;28;19943;-89
2023/11/30 06:26:52;;;;;;;;;;;;;;;;;;5091426;28;20000;-89
2023/11/30 06:29:18;;;;;;;;;;;;;;;;;;5069543;28;19950;-93
2023/11/30 06:31:44;;;;;;;;;;;;;;;;;;5086431;28;20320;-86
2023/11/30 06:34:10;;;;;;;;;;;;;;;;;;5082839;28;20359;-86
2023/11/30 06:36:36;;;;;;;;;;;;;;;;;;5078850;28;19948;-86
2023/11/30 06:39:03;;;;;;;;;;;;;;;;;;5069570;28;19951;-86
2023/11/30 06:41:29;;;;;;;;;;;;;;;;;;5089753;28;19927;-85
2023/11/30 06:43:54;;;;;;;;;;;;;;;;;;5072868;28;20041;-86
2023/11/30 06:46:20;;;;;;;;;;;;;;;;;;5091415;28;19947;-86
2023/11/30 06:48:47;;;;;;;;;;;;;;;;;;5072995;28;20036;-87
2023/11/30 06:51:13;;;;;;;;;;;;;;;;;;5090627;28;20057;-86
2023/11/30 06:53:39;;;;;;;;;;;;;;;;;;5092329;28;20387;-85
2023/11/30 06:56:05;;;;;;;;;;;;;;;;;;5095974;28;19923;-86
2023/11/30 06:58:31;;;;;;;;;;;;;;;;;;5090847;28;20018;-86
2023/11/30 07:00:57;;;;;;;;;;;;;;;;;;5089105;28;20007;-86
2023/11/30 07:03:23;;;;;;;;;;;;;;;;;;5072585;28;19966;-86
2023/11/30 07:05:49;;;;;;;;;;;;;;;;;;5088149;28;20299;-86
2023/11/30 07:08:15;;;;;;;;;;;;;;;;;;5090664;28;20350;-86
2023/11/30 07:10:41;;;;;;;;;;;;;;;;;;5085048;28;19974;-86
2023/11/30 07:13:07;;;;;;;;;;;;;;;;;;5088600;28;20293;-84
2023/11/30 07:15:33;;;;;;;;;;;;;;;;;;5084753;28;19947;-86
2023/11/30 07:17:59;;;;;;;;;;;;;;;;;;5086070;28;20424;-86
2023/11/30 07:20:25;;;;;;;;;;;;;;;;;;5090422;28;19974;-86
2023/11/30 07:22:51;;;;;;;;;;;;;;;;;;5085717;28;19944;-86
2023/11/30 07:25:17;;;;;;;;;;;;;;;;;;5071057;28;19954;-86
2023/11/30 07:27:43;;;;;;;;;;;;;;;;;;5082626;28;19943;-85
2023/11/30 07:30:09;;;;;;;;;;;;;;;;;;5088768;28;19916;-86
2023/11/30 07:32:34;;;;;;;;;;;;;;;;;;5088638;28;20307;-86
2023/11/30 07:35:00;;;;;;;;;;;;;;;;;;5088850;28;20007;-86
2023/11/30 07:37:26;;;;;;;;;;;;;;;;;;5089921;28;19963;-86
2023/11/30 07:39:52;;;;;;;;;;;;;;;;;;5090211;28;19954;-81
2023/11/30 07:42:20;;;;;;;;;;;;;;;;;;5088831;28;19957;-82
2023/11/30 07:44:46;;;;;;;;;;;;;;;;;;5088948;28;19964;-83
2023/11/30 07:47:12;;;;;;;;;;;;;;;;;;5088533;28;20002;-84
2023/11/30 07:49:38;;;;;;;;;;;;;;;;;;5086462;28;19958;-84
2023/11/30 07:52:04;;;;;;;;;;;;;;;;;;5088162;28;19939;-85
2023/11/30 07:54:30;;;;;;;;;;;;;;;;;;5089457;28;19918;-82
2023/11/30 07:56:56;;;;;;;;;;;;;;;;;;5088268;28;20085;-85
2023/11/30 07:59:22;;;;;;;;;;;;;;;;;;5089031;28;19951;-84
2023/11/30 08:01:48;;;;;;;;;;;;;;;;;;5086533;28;19916;-82
2023/11/30 08:04:14;;;;;;;;;;;;;;;;;;5088962;28;20641;-84
2023/11/30 08:06:40;;;;;;;;;;;;;;;;;;5088067;28;19919;-83
2023/11/30 08:09:06;;;;;;;;;;;;;;;;;;5090733;28;19963;-85
2023/11/30 08:11:32;;;;;;;;;;;;;;;;;;5068625;28;19935;-83
2023/11/30 08:13:58;;;;;;;;;;;;;;;;;;5097342;28;20402;-83
2023/11/30 08:16:24;;;;;;;;;;;;;;;;;;5082803;28;19939;-84
2023/11/30 08:18:50;;;;;;;;;;;;;;;;;;5088749;28;19912;-81
2023/11/30 08:21:16;;;;;;;;;;;;;;;;;;5087252;28;20014;-82
2023/11/30 08:23:43;;;;;;;;;;;;;;;;;;5088855;28;20460;-83
2023/11/30 08:26:11;;;;;;;;;;;;;;;;;;5088460;28;19912;-83
2023/11/30 08:28:37;;;;;;;;;;;;;;;;;;5088836;28;19987;-83
2023/11/30 08:31:04;;;;;;;;;;;;;;;;;;5088269;28;20003;-83
2023/11/30 08:33:30;;;;;;;;;;;;;;;;;;5088635;28;19908;-82
2023/11/30 08:35:56;;;;;;;;;;;;;;;;;;5086571;28;20012;-82
2023/11/30 08:38:22;;;;;;;;;;;;;;;;;;5088843;28;20072;-82
2023/11/30 08:40:48;;;;;;;;;;;;;;;;;;5088551;28;19916;-83
2023/11/30 08:43:15;;;;;;;;;;;;;;;;;;5088264;28;20279;-84
2023/11/30 08:45:42;;;;;;;;;;;;;;;;;;5070292;28;20006;-83
2023/11/30 08:48:08;;;;;;;;;;;;;;;;;;5088679;28;20793;-83
2023/11/30 08:50:34;;;;;;;;;;;;;;;;;;5088397;28;19915;-86
2023/11/30 08:52:59;;;;;;;;;;;;;;;;;;5081824;28;20037;-85
2023/11/30 08:55:25;;;;;;;;;;;;;;;;;;5088749;28;19954;-86
2023/11/30 08:57:51;;;;;;;;;;;;;;;;;;5088187;28;19951;-86
2023/11/30 09:00:17;;;;;;;;;;;;;;;;;;5088809;28;19977;-84
2023/11/30 09:02:43;;;;;;;;;;;;;;;;;;5088822;28;20403;-86
2023/11/30 09:05:11;;;;;;;;;;;;;;;;;;5082871;28;19915;-87
2023/11/30 09:07:37;;;;;;;;;;;;;;;;;;5088704;28;19908;-85
2023/11/30 09:10:04;;;;;;;;;;;;;;;;;;5065925;28;20346;-86
2023/11/30 09:12:30;;;;;;;;;;;;;;;;;;5086821;28;19934;-86
2023/11/30 09:14:57;;;;;;;;;;;;;;;;;;5088177;28;19947;-86
2023/11/30 09:17:23;;;;;;;;;;;;;;;;;;5088212;28;19961;-86
2023/11/30 09:19:49;;;;;;;;;;;;;;;;;;5088555;28;20342;-86
2023/11/30 09:22:15;;;;;;;;;;;;;;;;;;5088836;28;20152;-86
2023/11/30 09:24:41;;;;;;;;;;;;;;;;;;5088265;28;20354;-87
2023/11/30 09:27:08;;;;;;;;;;;;;;;;;;5084916;28;19943;-86
2023/11/30 09:29:34;;;;;;;;;;;;;;;;;;5088428;28;19908;-86
2023/11/30 09:32:00;;;;;;;;;;;;;;;;;;5069923;28;20332;-86
2023/11/30 09:34:26;;;;;;;;;;;;;;;;;;5085306;28;20280;-87
2023/11/30 09:36:52;;;;;;;;;;;;;;;;;;5092356;28;19908;-86
2023/11/30 09:39:19;;;;;;;;;;;;;;;;;;5088326;28;20378;-86
2023/11/30 09:41:45;;;;;;;;;;;;;;;;;;5086800;28;19908;-86
2023/11/30 09:44:11;;;;;;;;;;;;;;;;;;5085733;28;19947;-86
2023/11/30 09:46:38;;;;;;;;;;;;;;;;;;5087979;28;20133;-86
2023/11/30 09:49:06;;;;;;;;;;;;;;;;;;5088109;28;19912;-86
2023/11/30 09:51:32;;;;;;;;;;;;;;;;;;5087925;28;19993;-85
2023/11/30 09:53:58;;;;;;;;;;;;;;;;;;5090885;28;20001;-84
2023/11/30 09:56:26;;;;;;;;;;;;;;;;;;5091221;28;20374;-84
2023/11/30 09:58:52;;;;;;;;;;;;;;;;;;5073005;28;19919;-84
2023/11/30 10:01:18;;;;;;;;;;;;;;;;;;5085671;28;20435;-82
2023/11/30 10:03:43;;;;;;;;;;;;;;;;;;5090241;28;20335;-81
2023/11/30 10:06:09;;;;;;;;;;;;;;;;;;5089354;28;19947;-83
2023/11/30 10:08:35;;;;;;;;;;;;;;;;;;5092768;28;20000;-84
2023/11/30 10:11:03;;;;;;;;;;;;;;;;;;5083107;28;19995;-82
2023/11/30 10:13:29;;;;;;;;;;;;;;;;;;5092358;28;20279;-81
2023/11/30 10:15:55;;;;;;;;;;;;;;;;;;5091359;28;19949;-81
2023/11/30 10:18:21;;;;;;;;;;;;;;;;;;5083900;28;19939;-83
2023/11/30 10:20:47;;;;;;;;;;;;;;;;;;5091151;28;19912;-83
2023/11/30 10:23:13;;;;;;;;;;;;;;;;;;5092195;28;20000;-81
2023/11/30 10:25:39;;;;;;;;;;;;;;;;;;5091727;28;20363;-82
2023/11/30 10:28:06;;;;;;;;;;;;;;;;;;5091565;28;20045;-82
2023/11/30 10:30:33;;;;;;;;;;;;;;;;;;5093235;28;19912;-82
2023/11/30 10:32:59;;;;;;;;;;;;;;;;;;5101892;28;20339;-81
2023/11/30 10:35:25;;;;;;;;;;;;;;;;;;5088901;28;19951;-81
2023/11/30 10:37:51;;;;;;;;;;;;;;;;;;5072892;28;19959;-82
2023/11/30 10:40:17;;;;;;;;;;;;;;;;;;5089379;28;20248;-83
2023/11/30 10:42:43;;;;;;;;;;;;;;;;;;5070013;28;19951;-81
2023/11/30 10:45:11;;;;;;;;;;;;;;;;;;5090958;28;19947;-81
2023/11/30 10:47:37;;;;;;;;;;;;;;;;;;5090117;28;19958;-83
2023/11/30 10:50:05;;;;;;;;;;;;;;;;;;5089857;28;19958;-83
2023/11/30 10:52:31;;;;;;;;;;;;;;;;;;5071114;28;19943;-82
2023/11/30 10:54:57;;;;;;;;;;;;;;;;;;5090363;28;19947;-82
2023/11/30 10:57:23;;;;;;;;;;;;;;;;;;5089840;28;19951;-82
2023/11/30 10:59:49;;;;;;;;;;;;;;;;;;5090435;28;19963;-83
2023/11/30 11:02:15;;;;;;;;;;;;;;;;;;5087422;28;20003;-82
2023/11/30 11:04:41;;;;;;;;;;;;;;;;;;5089890;28;19908;-81
2023/11/30 11:07:07;;;;;;;;;;;;;;;;;;5090332;28;19912;-82
2023/11/30 11:09:33;;;;;;;;;;;;;;;;;;5089441;28;19935;-83
2023/11/30 11:11:59;;;;;;;;;;;;;;;;;;5095004;28;19943;-86
2023/11/30 11:14:25;;;;;;;;;;;;;;;;;;5091974;28;20043;-86
2023/11/30 11:16:53;;;;;;;;;;;;;;;;;;5072041;28;19947;-86
2023/11/30 11:19:20;;;;;;;;;;;;;;;;;;5090670;28;19912;-86
2023/11/30 11:21:48;;;;;;;;;;;;;;;;;;5090213;28;19908;-86
2023/11/30 11:24:13;;;;;;;;;;;;;;;;;;5072688;28;19961;-86
2023/11/30 11:26:39;;;;;;;;;;;;;;;;;;5090369;28;20379;-86
2023/11/30 11:29:05;;;;;;;;;;;;;;;;;;5091054;28;19916;-85
2023/11/30 11:31:31;;;;;;;;;;;;;;;;;;5090523;28;19958;-86
2023/11/30 11:33:57;;;;;;;;;;;;;;;;;;5090999;28;19969;-86
2023/11/30 11:36:25;;;;;;;;;;;;;;;;;;5088991;28;19951;-85
2023/11/30 11:38:51;;;;;;;;;;;;;;;;;;5090438;28;19912;-86
2023/11/30 11:41:17;;;;;;;;;;;;;;;;;;5090248;28;19950;-85
2023/11/30 11:43:43;;;;;;;;;;;;;;;;;;5074045;28;19915;-86
2023/11/30 11:46:09;;;;;;;;;;;;;;;;;;5089007;28;20327;-85
2023/11/30 11:48:35;;;;;;;;;;;;;;;;;;5090446;28;19963;-84
2023/11/30 11:51:01;;;;;;;;;;;;;;;;;;5071067;28;20029;-85
2023/11/30 11:53:27;;;;;;;;;;;;;;;;;;5090020;28;19951;-85
2023/11/30 11:55:53;;;;;;;;;;;;;;;;;;5093806;28;20308;-86
2023/11/30 11:58:19;;;;;;;;;;;;;;;;;;5085623;28;20427;-85
2023/11/30 12:00:45;;;;;;;;;;;;;;;;;;5085191;28;19962;-85
2023/11/30 12:03:11;;;;;;;;;;;;;;;;;;5089362;28;20043;-85
2023/11/30 12:05:37;;;;;;;;;;;;;;;;;;5089175;28;20025;-85
2023/11/30 12:08:04;;;;;;;;;;;;;;;;;;5071760;28;20366;-85
2023/11/30 12:10:30;;;;;;;;;;;;;;;;;;5089424;28;20363;-85
2023/11/30 12:12:56;;;;;;;;;;;;;;;;;;5071067;28;19912;-85
2023/11/30 12:15:22;;;;;;;;;;;;;;;;;;5089109;28;19962;-84
2023/11/30 12:17:48;;;;;;;;;;;;;;;;;;5089730;28;19939;-85
2023/11/30 12:20:14;;;;;;;;;;;;;;;;;;5088281;28;19923;-85
2023/11/30 12:22:40;;;;;;;;;;;;;;;;;;5086967;28;19966;-82
2023/11/30 12:25:07;;;;;;;;;;;;;;;;;;5088658;28;19912;-82
2023/11/30 12:27:33;;;;;;;;;;;;;;;;;;5087412;28;19908;-81
2023/11/30 12:29:59;;;;;;;;;;;;;;;;;;5090713;28;19923;-82
2023/11/30 12:32:25;;;;;;;;;;;;;;;;;;5089907;28;20379;-79
2023/11/30 12:34:52;;;;;;;;;;;;;;;;;;5073358;28;19914;-79
2023/11/30 12:37:19;;;;;;;;;;;;;;;;;;5088895;28;19963;-82
2023/11/30 12:39:45;;;;;;;;;;;;;;;;;;5089438;28;20011;-80
2023/11/30 12:42:11;;;;;;;;;;;;;;;;;;5069756;28;20387;-80
2023/11/30 12:44:37;;;;;;;;;;;;;;;;;;5088838;28;19912;-83
2023/11/30 12:47:03;;;;;;;;;;;;;;;;;;5070153;28;19908;-80
2023/11/30 12:49:29;;;;;;;;;;;;;;;;;;5088313;28;19955;-82
2023/11/30 12:51:55;;;;;;;;;;;;;;;;;;5078724;28;20028;-82
2023/11/30 12:54:21;;;;;;;;;;;;;;;;;;5088236;28;19961;-82
2023/11/30 12:56:47;;;;;;;;;;;;;;;;;;5088085;28;19970;-80
2023/11/30 12:59:13;;;;;;;;;;;;;;;;;;5088583;28;20264;-80
2023/11/30 13:01:39;;;;;;;;;;;;;;;;;;5088618;28;20003;-82
2023/11/30 13:04:05;;;;;;;;;;;;;;;;;;5087415;28;20333;-79
2023/11/30 13:06:31;;;;;;;;;;;;;;;;;;5069632;28;19959;-80
2023/11/30 13:08:57;;;;;;;;;;;;;;;;;;5069940;28;19947;-82
2023/11/30 13:11:23;;;;;;;;;;;;;;;;;;5082578;28;19947;-81
2023/11/30 13:13:48;;;;;;;;;;;;;;;;;;5070197;28;19994;-81
2023/11/30 13:16:14;;;;;;;;;;;;;;;;;;5081138;28;19947;-82
2023/11/30 13:18:40;;;;;;;;;;;;;;;;;;5087896;28;19994;-81
2023/11/30 13:21:06;;;;;;;;;;;;;;;;;;5067342;28;20410;-80
2023/11/30 13:23:32;;;;;;;;;;;;;;;;;;5088106;28;20047;-80
2023/11/30 13:25:58;;;;;;;;;;;;;;;;;;5079814;28;20346;-82
2023/11/30 13:28:27;;;;;;;;;;;;;;;;;;5084779;28;19947;-80
2023/11/30 13:30:53;;;;;;;;;;;;;;;;;;5080661;28;19965;-81
2023/11/30 13:33:19;;;;;;;;;;;;;;;;;;5073487;28;19995;-85
2023/11/30 13:35:46;;;;;;;;;;;;;;;;;;5086537;28;19957;-86
2023/11/30 13:38:12;;;;;;;;;;;;;;;;;;5093602;28;20359;-86
2023/11/30 13:40:38;;;;;;;;;;;;;;;;;;5093077;28;19954;-85
2023/11/30 13:43:04;;;;;;;;;;;;;;;;;;5081561;28;19936;-86
2023/11/30 13:45:30;;;;;;;;;;;;;;;;;;5087676;28;19919;-86
2023/11/30 13:47:56;;;;;;;;;;;;;;;;;;5072532;28;20364;-85
2023/11/30 13:50:23;;;;;;;;;;;;;;;;;;5087206;28;19959;-85
2023/11/30 13:52:49;;;;;;;;;;;;;;;;;;5091949;28;20311;-85
2023/11/30 13:55:15;;;;;;;;;;;;;;;;;;5092310;28;19944;-85
2023/11/30 13:57:41;;;;;;;;;;;;;;;;;;5092057;28;19927;-86
2023/11/30 14:00:07;;;;;;;;;;;;;;;;;;5073661;28;19947;-85
2023/11/30 14:02:35;;;;;;;;;;;;;;;;;;5071454;28;19986;-83
2023/11/30 14:05:00;;;;;;;;;;;;;;;;;;5089530;28;19969;-85
2023/11/30 14:07:29;;;;;;;;;;;;;;;;;;5087502;28;19982;-85
2023/11/30 14:09:55;;;;;;;;;;;;;;;;;;5073213;28;20117;-85
2023/11/30 14:12:21;;;;;;;;;;;;;;;;;;5089590;28;20014;-85
2023/11/30 14:14:47;;;;;;;;;;;;;;;;;;5091413;28;19908;-84
2023/11/30 14:17:13;;;;;;;;;;;;;;;;;;5069835;28;19935;-85
2023/11/30 14:19:39;;;;;;;;;;;;;;;;;;5090276;28;19920;-85
2023/11/30 14:22:08;;;;;;;;;;;;;;;;;;5067936;28;20328;-85
2023/11/30 14:24:34;;;;;;;;;;;;;;;;;;5090116;28;19912;-86
2023/11/30 14:27:00;;;;;;;;;;;;;;;;;;5086352;28;20260;-86
2023/11/30 14:29:26;;;;;;;;;;;;;;;;;;5085961;28;20382;-85
2023/11/30 14:31:51;;;;;;;;;;;;;;;;;;5093600;28;19947;-85
2023/11/30 14:34:17;;;;;;;;;;;;;;;;;;5089353;28;19951;-84
2023/11/30 14:36:43;;;;;;;;;;;;;;;;;;5089758;28;20341;-86
2023/11/30 14:39:10;;;;;;;;;;;;;;;;;;5090461;28;19943;-86
2023/11/30 14:41:37;;;;;;;;;;;;;;;;;;5086197;28;19922;-83
2023/11/30 14:44:03;;;;;;;;;;;;;;;;;;5088315;28;19969;-85
2023/11/30 14:46:29;;;;;;;;;;;;;;;;;;5087990;28;20026;-85
2023/11/30 14:48:55;;;;;;;;;;;;;;;;;;5089868;28;20030;-86
2023/11/30 14:51:21;;;;;;;;;;;;;;;;;;5085578;28;20355;-89
2023/11/30 14:53:47;;;;;;;;;;;;;;;;;;5089887;28;20393;-87
2023/11/30 14:56:13;;;;;;;;;;;;;;;;;;5084853;28;20052;-88
2023/11/30 14:58:39;;;;;;;;;;;;;;;;;;5069752;28;20405;-86
2023/11/30 15:01:10;;;;;;;;;;;;;;;;;;5085239;28;19958;-86
2023/11/30 15:03:36;;;;;;;;;;;;;;;;;;5085132;28;19912;-87
2023/11/30 15:06:02;;;;;;;;;;;;;;;;;;5082487;28;19958;-87
2023/11/30 15:08:28;;;;;;;;;;;;;;;;;;5070765;28;19973;-88
2023/11/30 15:10:53;;;;;;;;;;;;;;;;;;5070296;28;19954;-87
2023/11/30 15:13:20;;;;;;;;;;;;;;;;;;5089340;28;19951;-87
2023/11/30 15:15:46;;;;;;;;;;;;;;;;;;5088461;28;19919;-87
2023/11/30 15:18:12;;;;;;;;;;;;;;;;;;5085213;28;19939;-87
2023/11/30 15:20:37;;;;;;;;;;;;;;;;;;5081370;28;19955;-87
2023/11/30 15:23:03;;;;;;;;;;;;;;;;;;5087404;28;19964;-86
2023/11/30 15:25:29;;;;;;;;;;;;;;;;;;5088701;28;19988;-87
2023/11/30 15:27:55;;;;;;;;;;;;;;;;;;5084173;28;19958;-89
2023/11/30 15:30:21;;;;;;;;;;;;;;;;;;5082273;28;19951;-88
2023/11/30 15:32:47;;;;;;;;;;;;;;;;;;5084395;28;19908;-89
2023/11/30 15:35:14;;;;;;;;;;;;;;;;;;5082078;28;20038;-89
2023/11/30 15:37:46;;;;;;;;;;;;;;;;;;5058585;28;19908;-85
2023/11/30 15:40:12;;;;;;;;;;;;;;;;;;5088831;28;19916;-87
2023/11/30 15:42:38;;;;;;;;;;;;;;;;;;5090103;28;19965;-84
2023/11/30 15:45:06;;;;;;;;;;;;;;;;;;5092963;28;20246;-89
2023/11/30 15:47:32;;;;;;;;;;;;;;;;;;5070047;28;19920;-88
2023/11/30 15:49:58;;;;;;;;;;;;;;;;;;5082455;28;19916;-85
2023/11/30 15:52:24;;;;;;;;;;;;;;;;;;5092335;28;19915;-86
2023/11/30 15:54:50;;;;;;;;;;;;;;;;;;5096131;27;20018;-88
2023/11/30 15:57:15;;;;;;;;;;;;;;;;;;5086560;28;19923;-91
2023/11/30 15:59:41;;;;;;;;;;;;;;;;;;5092758;28;19946;-92
2023/11/30 16:02:07;;;;;;;;;;;;;;;;;;5084310;28;19923;-91
2023/11/30 16:04:34;;;;;;;;;;;;;;;;;;5098865;28;19908;-93
2023/11/30 16:07:00;;;;;;;;;;;;;;;;;;5090173;28;19947;-89
2023/11/30 16:09:26;;;;;;;;;;;;;;;;;;5089171;28;20220;-87
2023/11/30 16:11:52;;;;;;;;;;;;;;;;;;5087126;28;20315;-89
2023/11/30 16:14:18;;;;;;;;;;;;;;;;;;5091111;28;19912;-91
2023/11/30 16:16:44;;;;;;;;;;;;;;;;;;5082895;28;19955;-88
2023/11/30 16:19:10;;;;;;;;;;;;;;;;;;5084650;28;20019;-89
2023/11/30 16:21:36;;;;;;;;;;;;;;;;;;5086092;28;20363;-90
2023/11/30 16:24:02;;;;;;;;;;;;;;;;;;5083170;28;20381;-90
2023/11/30 16:26:28;;;;;;;;;;;;;;;;;;5069235;28;19966;-90
2023/11/30 16:28:54;;;;;;;;;;;;;;;;;;5079540;28;19955;-89
2023/11/30 16:31:20;;;;;;;;;;;;;;;;;;5086441;28;19999;-89
2023/11/30 16:33:48;;;;;;;;;;;;;;;;;;5083159;28;19908;-91
2023/11/30 16:36:14;;;;;;;;;;;;;;;;;;5086274;28;19908;-90
2023/11/30 16:38:41;;;;;;;;;;;;;;;;;;5094673;28;19927;-91